SAME/MDZ METAR and TAF weather

Enter ICAO airport designator
Station Type Date Time Source
SAME METAR 2020/09/20 07:00 UTC NOAA

SAME 200700Z 00000KT CAVOK 06/M02 Q1021


Station Type Date Time Source
SAME Decoded METAR 2020/09/20 07:00 UTC NOAA

Mendoza Aerodrome, Argentina (SAME) 32-50S 068-47W 704M
Sep 20, 2020 - 03:00 AM EDT / 2020.09.20 0700 UTC
Wind: Calm:0
Visibility: greater than 7 mile(s):0
Temperature: 42 F (6 C)
Dew Point: 28 F (-2 C)
Relative Humidity: 56%
Pressure (altimeter): 30.15 in. Hg (1021 hPa)
ob: SAME 200700Z 00000KT CAVOK 06/M02 Q1021
cycle: 7

Station Type Date Time Source
SAME TAF 2020/09/20 06:39 UTC NOAA

TAF SAME 200500Z 2006/2106 VRB03KT CAVOK TX22/2020Z TN02/2010Z

Example: see airport list